Terminal Aerodrome Forecast
Issued by NWS Riverton, WY

Home | Current Version | Previous Version | Text Only | Print | Product List | Glossary On
Versions: 1 2 3 4 5 6 7 8 9 10 11 12 13 14 15 16 17 18
468
FTUS45 KRIW 221300 AAA
TAFRIW
TAF AMD
KRIW 221341Z 2214/2312 05006KT P6SM SCT006 BKN010
     FM221500 06008KT P6SM VCSH SCT015 BKN030
     FM222200 10009KT P6SM VCSH SCT030 BKN050
     FM230300 10007KT P6SM -SHRA SCT025 BKN040=

USA.gov is the U.S. government's official web portal to all federal, state and local government web resources and services.